createdAt,value
2022-08-09T00:00:49.514Z,56.40
2022-08-09T00:01:54.785Z,61.35
2022-08-09T00:02:51.694Z,61.61
2022-08-09T00:04:05.644Z,57.47
2022-08-09T00:05:00.824Z,60.14
2022-08-09T00:06:18.917Z,58.69
2022-08-09T00:06:49.468Z,57.17
2022-08-09T00:07:48.436Z,58.75
2022-08-09T00:08:48.391Z,60.49
2022-08-09T00:09:48.388Z,60.33
2022-08-09T00:10:48.405Z,57.58
2022-08-09T00:12:03.075Z,58.55
2022-08-09T00:12:52.358Z,60.05
2022-08-09T00:13:48.355Z,61.11
2022-08-09T00:14:48.364Z,60.30
2022-08-09T00:15:59.764Z,62.23
2022-08-09T00:16:49.348Z,59.95
2022-08-09T00:18:05.150Z,53.61
2022-08-09T00:18:49.300Z,53.00
2022-08-09T00:19:48.293Z,56.73
2022-08-09T00:20:50.001Z,61.10
2022-08-09T00:21:56.302Z,58.24
2022-08-09T00:22:49.268Z,55.92
2022-08-09T00:23:57.236Z,60.15
2022-08-09T00:24:49.263Z,61.14
2022-08-09T00:25:51.926Z,61.10
2022-08-09T00:26:48.249Z,60.37
2022-08-09T00:27:48.225Z,62.88
2022-08-09T00:28:52.394Z,59.09
2022-08-09T00:30:16.315Z,59.75
2022-08-09T00:30:49.220Z,58.56
2022-08-09T00:31:58.416Z,62.07
2022-08-09T00:32:49.177Z,60.16
2022-08-09T00:33:50.785Z,58.58
2022-08-09T00:34:52.151Z,56.00
2022-08-09T00:35:48.139Z,59.29
2022-08-09T00:36:48.169Z,58.58
2022-08-09T00:37:48.125Z,59.83
2022-08-09T00:38:50.536Z,59.01
2022-08-09T00:40:12.430Z,60.08
2022-08-09T00:40:53.173Z,57.73
2022-08-09T00:44:10.787Z,60.64
2022-08-09T00:44:13.010Z,58.30
2022-08-09T00:44:19.305Z,59.45
2022-08-09T00:44:49.073Z,59.41
2022-08-09T00:45:53.775Z,59.51
2022-08-09T00:46:57.265Z,60.19
2022-08-09T00:47:49.043Z,61.48
2022-08-09T00:48:49.466Z,59.02
2022-08-09T00:49:54.425Z,57.97
2022-08-09T00:50:52.103Z,52.78
2022-08-09T00:51:55.853Z,59.52
2022-08-09T00:52:49.005Z,57.69
2022-08-09T00:53:47.999Z,56.85
2022-08-09T00:54:48.008Z,57.53
2022-08-09T00:56:03.856Z,59.50
2022-08-09T00:56:48.992Z,60.56
2022-08-09T00:57:49.753Z,57.75
2022-08-09T00:58:48.962Z,59.05
2022-08-09T00:59:52.446Z,57.39
2022-08-09T01:02:55.689Z,60.27
2022-08-09T01:03:56.826Z,61.36
2022-08-09T01:04:55.668Z,60.25
2022-08-09T01:05:55.662Z,57.84
2022-08-09T01:06:55.779Z,60.19
2022-08-09T01:08:01.121Z,59.11
2022-08-09T01:08:56.652Z,59.07
2022-08-09T01:09:55.609Z,56.28
2022-08-09T01:10:55.616Z,61.15
2022-08-09T01:11:56.110Z,61.01
2022-08-09T01:12:55.608Z,57.54
2022-08-09T01:14:00.301Z,57.03
2022-08-09T01:14:56.822Z,51.09
2022-08-09T01:15:55.585Z,57.07
2022-08-09T01:16:55.561Z,62.19
2022-08-09T01:17:57.698Z,62.47
2022-08-09T01:19:04.487Z,60.10
2022-08-09T01:20:02.605Z,59.55
2022-08-09T01:20:56.534Z,60.37
2022-08-09T01:21:55.529Z,60.27
2022-08-09T01:22:55.519Z,59.24
2022-08-09T01:24:02.043Z,60.17
2022-08-09T01:24:56.805Z,60.65
2022-08-09T01:25:55.484Z,57.34
2022-08-09T01:26:55.489Z,58.51
2022-08-09T01:27:57.846Z,60.87
2022-08-09T01:28:55.461Z,62.24
2022-08-09T01:29:56.717Z,58.70
2022-08-09T01:30:55.657Z,62.53
2022-08-09T01:32:29.845Z,62.16
2022-08-09T01:32:56.476Z,61.76
2022-08-09T01:33:55.421Z,63.81
2022-08-09T01:34:55.428Z,62.65
2022-08-09T01:35:55.450Z,54.24
2022-08-09T01:36:55.404Z,60.10
2022-08-09T01:38:09.405Z,58.56
2022-08-09T01:38:56.386Z,60.41
2022-08-09T01:39:55.370Z,57.26
2022-08-09T01:41:03.215Z,60.37
2022-08-09T01:42:01.313Z,60.12
2022-08-09T01:42:56.350Z,59.05
2022-08-09T01:43:55.323Z,63.05
2022-08-09T01:44:55.326Z,61.25
2022-08-09T01:45:58.070Z,63.98
2022-08-09T01:46:55.307Z,60.93
2022-08-09T01:47:55.295Z,63.84
2022-08-09T01:48:55.293Z,59.99
2022-08-09T01:49:55.284Z,59.51
2022-08-09T01:50:55.538Z,61.11
2022-08-09T01:51:55.286Z,57.29
2022-08-09T01:52:55.263Z,60.23
2022-08-09T01:53:58.087Z,58.61
2022-08-09T01:54:55.238Z,61.96
2022-08-09T01:55:55.251Z,56.37
2022-08-09T01:56:55.249Z,58.06
2022-08-09T01:57:55.218Z,55.40
2022-08-09T01:58:55.211Z,62.66
2022-08-09T01:59:59.975Z,61.56
2022-08-09T02:00:56.245Z,57.29
2022-08-09T02:02:00.381Z,56.85
2022-08-09T02:02:56.170Z,62.61
2022-08-09T02:03:55.157Z,57.21
2022-08-09T02:04:55.161Z,58.14
2022-08-09T02:06:03.773Z,61.52
2022-08-09T02:06:58.569Z,61.78
2022-08-09T02:08:39.345Z,59.39
2022-08-09T02:08:58.768Z,60.29
2022-08-09T02:09:59.433Z,59.71
2022-08-09T02:10:56.121Z,60.94
2022-08-09T02:11:55.101Z,60.30
2022-08-09T02:12:55.118Z,60.32
2022-08-09T02:13:55.455Z,57.71
2022-08-09T02:14:56.092Z,63.64
2022-08-09T02:15:55.074Z,62.24
2022-08-09T02:16:59.601Z,56.46
2022-08-09T02:18:00.822Z,60.13
2022-08-09T02:18:56.060Z,62.78
2022-08-09T02:19:55.038Z,61.20
2022-08-09T02:20:55.031Z,62.52
2022-08-09T02:21:55.327Z,61.98
2022-08-09T02:22:55.043Z,62.74
2022-08-09T02:23:55.011Z,56.90
2022-08-09T02:24:55.050Z,61.76
2022-08-09T02:25:55.779Z,62.90
2022-08-09T02:26:55.087Z,61.56
2022-08-09T02:28:00.107Z,60.21
2022-08-09T02:28:55.997Z,61.43
2022-08-09T02:29:54.959Z,63.59
2022-08-09T02:30:54.959Z,61.21
2022-08-09T02:31:54.945Z,59.96
2022-08-09T02:32:54.945Z,60.06
2022-08-09T02:34:07.493Z,62.62
2022-08-09T02:34:57.643Z,64.11
2022-08-09T02:36:02.902Z,63.17
2022-08-09T02:36:55.932Z,62.51
2022-08-09T02:37:54.899Z,62.02
2022-08-09T02:38:54.887Z,62.65
2022-08-09T02:39:55.339Z,64.34
2022-08-09T02:40:55.960Z,62.79
2022-08-09T02:41:54.853Z,59.60
2022-08-09T02:42:54.874Z,60.20
2022-08-09T02:43:55.896Z,62.50
2022-08-09T02:44:54.844Z,59.65
2022-08-09T02:45:54.837Z,63.86
2022-08-09T02:46:54.823Z,64.22
2022-08-09T02:47:59.355Z,61.04
2022-08-09T02:48:54.802Z,62.21
2022-08-09T02:49:55.307Z,62.19
2022-08-09T02:50:56.568Z,66.15
2022-08-09T02:51:54.783Z,59.62
2022-08-09T02:52:55.280Z,63.85
2022-08-09T02:54:00.829Z,62.59
2022-08-09T02:54:57.111Z,63.16
2022-08-09T02:55:58.429Z,61.17
2022-08-09T02:56:57.120Z,65.68
2022-08-09T02:58:00.490Z,61.62
2022-08-09T02:58:55.774Z,65.29
2022-08-09T03:00:21.257Z,63.42
2022-08-09T03:00:58.219Z,61.14
2022-08-09T03:02:06.033Z,64.30
2022-08-09T03:02:59.674Z,62.34
2022-08-09T03:04:18.134Z,65.48
2022-08-09T03:04:55.804Z,60.08
2022-08-09T03:05:55.606Z,64.22
2022-08-09T03:06:54.667Z,59.65
2022-08-09T03:07:54.994Z,64.88
2022-08-09T03:08:54.654Z,65.62
2022-08-09T03:10:00.395Z,62.07
2022-08-09T03:10:55.649Z,61.06
2022-08-09T03:12:06.629Z,64.44
2022-08-09T03:12:55.645Z,64.88
2022-08-09T03:14:01.190Z,61.87
2022-08-09T03:14:56.613Z,63.83
2022-08-09T03:16:06.686Z,60.04
2022-08-09T03:16:55.605Z,63.67
2022-08-09T03:17:58.904Z,64.32
2022-08-09T03:18:55.757Z,66.22
2022-08-09T03:20:00.441Z,64.25
2022-08-09T03:20:55.545Z,63.99
2022-08-09T03:21:54.530Z,60.46
2022-08-09T03:22:58.323Z,64.60
2022-08-09T03:24:04.042Z,64.76
2022-08-09T03:25:06.353Z,65.07
2022-08-09T03:26:02.219Z,64.52
2022-08-09T03:26:55.503Z,61.90
2022-08-09T03:27:55.481Z,64.82
2022-08-09T03:28:55.032Z,63.44
2022-08-09T03:29:57.833Z,65.10
2022-08-09T03:30:55.469Z,64.72
2022-08-09T03:31:59.563Z,62.71
2022-08-09T03:32:55.468Z,62.04
2022-08-09T03:33:56.607Z,65.52
2022-08-09T03:34:54.437Z,60.72
2022-08-09T03:36:16.605Z,63.41
2022-08-09T03:36:59.859Z,64.38
2022-08-09T03:37:58.667Z,61.70
2022-08-09T03:38:54.404Z,62.72
2022-08-09T03:39:55.527Z,60.80
2022-08-09T03:40:54.404Z,64.14
2022-08-09T03:42:06.669Z,64.32
2022-08-09T03:42:55.410Z,64.72
2022-08-09T03:44:08.012Z,63.96
2022-08-09T03:44:55.360Z,64.70
2022-08-09T03:46:04.648Z,61.77
2022-08-09T03:46:55.344Z,58.70
2022-08-09T03:47:54.336Z,63.52
2022-08-09T03:48:54.339Z,63.56
2022-08-09T03:49:58.338Z,64.12
2022-08-09T03:50:54.292Z,64.76
2022-08-09T03:51:58.538Z,64.66
2022-08-09T03:52:55.288Z,65.45
2022-08-09T03:53:54.275Z,64.92
2022-08-09T03:54:54.292Z,64.62
2022-08-09T03:55:54.269Z,64.04
2022-08-09T03:56:58.027Z,65.20
2022-08-09T03:58:06.323Z,63.98
2022-08-09T03:58:55.251Z,64.61
2022-08-09T03:59:56.067Z,65.33
2022-08-09T04:00:55.285Z,63.72
2022-08-09T04:01:54.261Z,65.46
2022-08-09T04:02:54.222Z,66.71
2022-08-09T04:04:01.314Z,65.41
2022-08-09T04:04:55.199Z,62.94
2022-08-09T04:05:54.184Z,64.55
2022-08-09T04:06:54.245Z,66.04
2022-08-09T04:07:57.188Z,65.74
2022-08-09T04:08:54.156Z,64.56
2022-08-09T04:09:54.169Z,66.61
2022-08-09T04:10:54.155Z,66.80
2022-08-09T04:11:54.157Z,66.69
2022-08-09T04:12:54.665Z,66.54
2022-08-09T04:14:53.835Z,65.12
2022-08-09T04:15:01.913Z,65.49
2022-08-09T04:16:20.494Z,66.22
2022-08-09T04:16:55.129Z,62.71
2022-08-09T04:17:54.102Z,65.15
2022-08-09T04:18:54.123Z,64.98
2022-08-09T04:19:56.251Z,65.67
2022-08-09T04:20:54.099Z,64.85
2022-08-09T04:21:54.049Z,66.63
2022-08-09T04:22:54.051Z,63.23
2022-08-09T04:23:57.764Z,66.82
2022-08-09T04:24:54.057Z,64.68
2022-08-09T04:25:54.067Z,64.76
2022-08-09T04:26:54.010Z,65.60
2022-08-09T04:27:54.009Z,64.41
2022-08-09T04:28:58.199Z,61.60
2022-08-09T04:29:55.165Z,67.99
2022-08-09T04:30:53.992Z,66.42
2022-08-09T04:31:53.986Z,65.95
2022-08-09T04:32:54.131Z,64.84
2022-08-09T04:33:57.016Z,61.10
2022-08-09T04:34:57.504Z,64.61
2022-08-09T04:35:53.942Z,66.96
2022-08-09T04:36:53.943Z,65.18
2022-08-09T04:37:53.975Z,66.11
2022-08-09T04:38:53.928Z,66.46
2022-08-09T04:39:53.990Z,66.89
2022-08-09T04:40:56.354Z,67.02
2022-08-09T04:41:53.912Z,63.97
2022-08-09T04:42:53.880Z,63.41
2022-08-09T04:44:06.788Z,66.37
2022-08-09T04:44:54.882Z,63.02
2022-08-09T04:45:54.449Z,62.69
2022-08-09T04:46:59.260Z,63.59
2022-08-09T04:48:00.286Z,65.01
2022-08-09T04:48:57.618Z,60.76
2022-08-09T04:49:55.619Z,66.94
2022-08-09T04:50:53.828Z,64.12
2022-08-09T04:51:53.820Z,59.11
2022-08-09T04:52:53.802Z,62.86
2022-08-09T04:53:58.445Z,66.75
2022-08-09T04:54:53.807Z,64.35
2022-08-09T04:55:57.710Z,65.03
2022-08-09T04:56:54.775Z,66.95
2022-08-09T04:58:01.495Z,64.77
2022-08-09T04:58:55.378Z,62.43
2022-08-09T04:59:53.748Z,59.59
2022-08-09T05:00:54.425Z,62.08
2022-08-09T05:01:53.730Z,66.71
2022-08-09T05:02:53.719Z,66.13
2022-08-09T05:03:56.810Z,63.24
2022-08-09T05:04:55.774Z,61.05
2022-08-09T05:06:06.767Z,64.30
2022-08-09T05:06:54.701Z,64.28
2022-08-09T05:07:53.691Z,64.49
2022-08-09T05:08:53.685Z,65.76
2022-08-09T05:09:54.710Z,64.11
2022-08-09T05:10:53.660Z,65.34
2022-08-09T05:11:53.653Z,66.07
2022-08-09T05:12:53.669Z,63.25
2022-08-09T05:13:55.047Z,61.41
2022-08-09T05:14:53.622Z,64.77
2022-08-09T05:15:56.695Z,64.92
2022-08-09T05:16:59.402Z,65.00
2022-08-09T05:18:50.330Z,65.73
2022-08-09T05:18:58.235Z,65.12
2022-08-09T05:19:57.112Z,65.36
2022-08-09T05:20:53.591Z,65.04
2022-08-09T05:21:55.633Z,66.21
2022-08-09T05:23:55.528Z,66.44
2022-08-09T05:24:03.685Z,65.65
2022-08-09T05:24:57.201Z,63.84
2022-08-09T05:25:54.544Z,65.33
2022-08-09T05:26:53.727Z,63.03
2022-08-09T05:27:53.526Z,62.94
2022-08-09T05:28:53.495Z,64.56
2022-08-09T05:29:53.500Z,63.90
2022-08-09T05:30:53.474Z,63.88
2022-08-09T05:31:56.233Z,65.50
2022-08-09T05:32:53.550Z,65.20
2022-08-09T05:33:53.443Z,63.83
2022-08-09T05:34:53.447Z,62.74
2022-08-09T05:35:53.456Z,63.22
2022-08-09T05:36:53.427Z,63.77
2022-08-09T05:37:53.431Z,61.70
2022-08-09T05:38:53.440Z,62.02
2022-08-09T05:39:53.456Z,65.24
2022-08-09T05:40:53.394Z,63.57
2022-08-09T05:41:53.393Z,63.60
2022-08-09T05:42:53.381Z,65.36
2022-08-09T05:43:53.395Z,64.12
2022-08-09T05:44:53.383Z,63.82
2022-08-09T05:45:57.152Z,62.30
2022-08-09T05:46:53.335Z,63.40
2022-08-09T05:47:56.825Z,60.79
2022-08-09T05:48:57.627Z,63.25
2022-08-09T05:50:24.042Z,62.69
2022-08-09T05:51:16.720Z,59.08
2022-08-09T05:51:54.284Z,64.51
2022-08-09T05:52:53.429Z,63.65
2022-08-09T05:53:57.814Z,64.10
2022-08-09T05:54:53.298Z,62.68
2022-08-09T05:55:53.263Z,63.87
2022-08-09T05:56:54.416Z,61.75
2022-08-09T05:57:56.682Z,62.36
2022-08-09T05:58:57.882Z,60.30
2022-08-09T05:59:54.271Z,62.48
2022-08-09T06:00:53.237Z,61.69
2022-08-09T06:01:53.222Z,61.53
2022-08-09T06:02:56.891Z,63.51
2022-08-09T06:03:58.504Z,62.81
2022-08-09T06:04:55.838Z,61.33
2022-08-09T06:05:58.074Z,60.01
2022-08-09T06:06:54.160Z,55.41
2022-08-09T06:08:05.208Z,58.48
2022-08-09T06:08:54.156Z,64.44
2022-08-09T06:09:54.802Z,60.19
2022-08-09T06:10:54.170Z,59.85
2022-08-09T06:11:57.191Z,62.35
2022-08-09T06:13:02.965Z,61.63
2022-08-09T06:13:54.114Z,59.02
2022-08-09T06:14:53.096Z,60.44
2022-08-09T06:15:53.181Z,60.84
2022-08-09T06:16:53.105Z,62.38
2022-08-09T06:17:53.223Z,61.93
2022-08-09T06:18:53.095Z,59.15
2022-08-09T06:19:53.067Z,59.09
2022-08-09T06:20:54.860Z,60.37
2022-08-09T06:21:58.539Z,61.47
2022-08-09T06:22:54.064Z,61.70
2022-08-09T06:23:55.297Z,60.30
2022-08-09T06:24:54.107Z,61.39
2022-08-09T06:25:55.269Z,60.50
2022-08-09T06:26:52.995Z,60.74
2022-08-09T06:27:52.995Z,60.06
2022-08-09T06:29:01.083Z,61.88
2022-08-09T06:30:04.447Z,59.93
2022-08-09T06:30:54.173Z,60.69
2022-08-09T06:32:09.037Z,60.54
2022-08-09T06:33:00.413Z,61.66
2022-08-09T06:33:53.972Z,59.18
2022-08-09T06:34:53.213Z,62.68
2022-08-09T06:35:56.823Z,61.33
2022-08-09T06:36:57.390Z,59.89
2022-08-09T06:38:05.382Z,60.59
2022-08-09T06:38:53.927Z,62.05
2022-08-09T06:39:59.769Z,62.34
2022-08-09T06:40:55.064Z,61.66
2022-08-09T06:42:09.184Z,58.06
2022-08-09T06:42:53.871Z,57.96
2022-08-09T06:43:53.077Z,57.24
2022-08-09T06:44:54.586Z,59.85
2022-08-09T06:46:04.902Z,57.24
2022-08-09T06:46:55.369Z,59.67
2022-08-09T06:47:58.032Z,58.85
2022-08-09T06:48:55.580Z,58.14
2022-08-09T06:50:14.968Z,60.31
2022-08-09T06:50:53.884Z,58.47
2022-08-09T06:51:52.808Z,59.19
2022-08-09T06:52:52.801Z,59.40
2022-08-09T06:53:52.779Z,56.92
2022-08-09T06:54:54.037Z,60.61
2022-08-09T06:55:52.791Z,59.73
2022-08-09T06:56:52.791Z,59.75
2022-08-09T06:58:02.828Z,59.61
2022-08-09T07:00:51.247Z,58.24
2022-08-09T07:00:55.637Z,60.62
2022-08-09T07:00:58.520Z,60.24
2022-08-09T07:02:03.619Z,59.35
2022-08-09T07:05:19.351Z,60.41
2022-08-09T07:06:19.573Z,57.72
2022-08-09T07:07:58.696Z,59.01
2022-08-09T07:08:20.326Z,59.13
2022-08-09T07:09:55.498Z,60.81
2022-08-09T07:10:29.317Z,60.02
2022-08-09T07:11:25.325Z,61.05
2022-08-09T07:12:20.431Z,59.49
2022-08-09T07:13:28.139Z,61.12
2022-08-09T07:14:26.383Z,62.03
2022-08-09T07:15:53.944Z,60.27
2022-08-09T07:16:43.422Z,59.75
2022-08-09T07:17:20.295Z,59.70
2022-08-09T07:18:19.240Z,57.71
2022-08-09T07:19:23.634Z,60.01
2022-08-09T07:20:19.319Z,61.05
2022-08-09T07:21:19.984Z,59.97
2022-08-09T07:22:34.386Z,58.68
2022-08-09T07:23:20.215Z,57.74
2022-08-09T07:24:19.193Z,59.47
2022-08-09T07:25:19.228Z,60.50
2022-08-09T07:26:19.170Z,58.43
2022-08-09T07:27:27.009Z,59.36
2022-08-09T07:28:28.162Z,58.98
2022-08-09T07:29:20.174Z,57.95
2022-08-09T07:30:19.140Z,56.72
2022-08-09T07:31:19.173Z,59.60
2022-08-09T07:32:19.123Z,57.64
2022-08-09T07:33:19.115Z,60.05
2022-08-09T07:34:19.424Z,60.21
2022-08-09T07:35:19.313Z,60.10
2022-08-09T07:36:19.086Z,59.31
2022-08-09T07:37:19.122Z,59.88
2022-08-09T07:38:19.088Z,58.94
2022-08-09T07:39:20.496Z,60.53
2022-08-09T07:40:25.171Z,59.55
2022-08-09T07:41:20.124Z,59.30
2022-08-09T07:42:19.044Z,58.19
2022-08-09T07:43:19.071Z,59.30
2022-08-09T07:44:24.237Z,58.39
2022-08-09T07:45:23.083Z,58.41
2022-08-09T07:46:20.071Z,60.28
2022-08-09T07:47:19.005Z,59.23
2022-08-09T07:48:28.781Z,58.40
2022-08-09T07:49:20.005Z,56.85
2022-08-09T07:50:19.001Z,56.98
2022-08-09T07:52:03.568Z,58.49
2022-08-09T07:52:19.975Z,59.84
2022-08-09T07:53:36.424Z,61.54
2022-08-09T07:54:27.949Z,63.18
2022-08-09T07:55:20.035Z,60.28
2022-08-09T07:56:27.206Z,57.71
2022-08-09T07:57:19.954Z,58.10
2022-08-09T07:58:18.928Z,57.68
2022-08-09T07:59:33.810Z,58.96
2022-08-09T08:00:20.613Z,58.49
2022-08-09T08:01:21.677Z,58.74
2022-08-09T08:02:20.253Z,58.61
2022-08-09T08:03:18.874Z,59.45
2022-08-09T08:04:20.203Z,59.44
2022-08-09T08:05:19.861Z,59.47
2022-08-09T08:06:21.170Z,60.06
2022-08-09T08:08:44.156Z,60.30
2022-08-09T08:09:01.779Z,57.48
2022-08-09T08:09:35.513Z,59.45
2022-08-09T08:10:19.871Z,56.54
2022-08-09T08:12:09.714Z,59.80
2022-08-09T08:12:28.341Z,60.68
2022-08-09T08:13:19.808Z,60.69
2022-08-09T08:14:18.843Z,59.01
2022-08-09T08:15:24.006Z,57.84
2022-08-09T08:16:31.611Z,57.76
2022-08-09T08:17:35.016Z,60.62
2022-08-09T08:18:19.754Z,59.90
2022-08-09T08:19:18.747Z,58.08
2022-08-09T08:20:19.519Z,57.56
2022-08-09T08:21:21.276Z,58.44
2022-08-09T08:22:18.732Z,58.32
2022-08-09T08:23:19.731Z,58.30
2022-08-09T08:24:18.712Z,57.09
2022-08-09T08:25:19.344Z,57.41
2022-08-09T08:26:18.725Z,59.72
2022-08-09T08:27:19.714Z,59.17
2022-08-09T08:28:32.203Z,57.53
2022-08-09T08:29:20.362Z,57.69
2022-08-09T08:30:20.015Z,59.19
2022-08-09T08:31:18.874Z,57.03
2022-08-09T08:32:24.153Z,58.53
2022-08-09T08:33:23.833Z,58.89
2022-08-09T08:34:20.757Z,56.48
2022-08-09T08:35:19.612Z,59.82
2022-08-09T08:36:22.487Z,58.25
2022-08-09T08:37:19.625Z,58.11
2022-08-09T08:38:18.729Z,59.03
2022-08-09T08:39:18.631Z,58.70
2022-08-09T08:40:18.627Z,56.20
2022-08-09T08:41:19.203Z,58.00
2022-08-09T08:42:18.794Z,57.91
2022-08-09T08:43:20.392Z,56.48
2022-08-09T08:44:18.657Z,59.66
2022-08-09T08:45:19.570Z,58.92
2022-08-09T08:46:32.687Z,59.72
2022-08-09T08:47:19.912Z,58.41
2022-08-09T08:48:19.265Z,57.91
2022-08-09T08:49:19.087Z,59.31
2022-08-09T08:50:18.760Z,58.14
2022-08-09T08:51:18.605Z,57.19
2022-08-09T08:53:21.878Z,57.25
2022-08-09T08:54:20.422Z,58.89
2022-08-09T08:55:23.546Z,58.41
2022-08-09T08:56:26.526Z,57.86
2022-08-09T08:57:19.442Z,57.75
2022-08-09T08:58:18.687Z,57.54
2022-08-09T08:59:20.558Z,58.14
2022-08-09T09:00:27.318Z,57.55
2022-08-09T09:01:24.652Z,55.50
2022-08-09T09:02:30.680Z,54.54
2022-08-09T09:03:25.204Z,58.05
2022-08-09T09:04:26.990Z,56.64
2022-08-09T09:05:19.449Z,58.21
2022-08-09T09:06:19.414Z,58.55
2022-08-09T09:07:18.858Z,58.03
2022-08-09T09:08:30.221Z,58.54
2022-08-09T09:09:21.173Z,58.46
2022-08-09T09:10:19.380Z,56.45
2022-08-09T09:11:19.852Z,57.18
2022-08-09T09:12:18.363Z,58.94
2022-08-09T09:13:18.309Z,60.09
2022-08-09T09:14:18.327Z,58.75
2022-08-09T09:15:28.182Z,57.23
2022-08-09T09:16:30.475Z,55.40
2022-08-09T09:17:19.287Z,58.45
2022-08-09T09:18:18.301Z,55.95
2022-08-09T09:19:42.381Z,59.08
2022-08-09T09:20:21.454Z,58.64
2022-08-09T09:21:18.263Z,58.70
2022-08-09T09:22:26.817Z,53.76
2022-08-09T09:23:19.268Z,56.78
2022-08-09T09:24:21.940Z,58.64
2022-08-09T09:26:00.429Z,59.58
2022-08-09T09:26:19.211Z,60.09
2022-08-09T09:28:04.300Z,61.21
2022-08-09T09:28:39.208Z,56.19
2022-08-09T09:29:19.233Z,57.06
2022-08-09T09:30:38.670Z,53.52
2022-08-09T09:32:03.807Z,58.88
2022-08-09T09:32:19.166Z,59.41
2022-08-09T09:33:19.157Z,58.35
2022-08-09T09:34:18.799Z,59.43
2022-08-09T09:35:18.148Z,59.24
2022-08-09T09:36:20.952Z,57.92
2022-08-09T09:37:18.123Z,56.11
2022-08-09T09:38:18.574Z,56.42
2022-08-09T09:39:19.980Z,56.44
2022-08-09T09:40:18.232Z,59.08
2022-08-09T09:41:18.095Z,58.69
2022-08-09T09:42:18.137Z,57.76
2022-08-09T09:43:18.076Z,58.38
2022-08-09T09:44:25.980Z,58.11
2022-08-09T09:45:26.637Z,58.33
2022-08-09T09:47:21.570Z,57.34
2022-08-09T09:48:18.031Z,58.39
2022-08-09T09:49:18.081Z,58.60
2022-08-09T09:50:19.067Z,58.49
2022-08-09T09:51:18.846Z,58.39
2022-08-09T09:52:52.512Z,60.24
2022-08-09T09:53:20.177Z,57.11
2022-08-09T09:54:21.005Z,60.09
2022-08-09T09:55:28.188Z,57.27
2022-08-09T09:56:19.687Z,55.45
2022-08-09T09:58:00.656Z,57.19
2022-08-09T09:58:20.101Z,59.45
2022-08-09T09:59:18.942Z,58.97
2022-08-09T10:00:17.988Z,59.04
2022-08-09T10:01:30.297Z,59.16
2022-08-09T10:02:18.954Z,61.90
2022-08-09T10:03:18.009Z,60.75
2022-08-09T10:04:22.893Z,57.28
2022-08-09T10:05:26.809Z,57.52
2022-08-09T10:06:18.908Z,56.28
2022-08-09T10:07:17.877Z,57.80
2022-08-09T10:08:28.209Z,58.15
2022-08-09T10:09:22.234Z,56.16
2022-08-09T10:10:18.567Z,56.71
2022-08-09T10:11:53.611Z,56.81
2022-08-09T10:12:28.354Z,56.47
2022-08-09T10:13:23.256Z,55.09
2022-08-09T10:14:18.857Z,58.46
2022-08-09T10:15:50.960Z,57.33
2022-08-09T10:16:58.004Z,57.63
2022-08-09T10:17:40.340Z,59.23
2022-08-09T10:18:18.823Z,59.51
2022-08-09T10:19:17.791Z,56.62
2022-08-09T10:20:17.794Z,58.90
2022-08-09T10:21:18.774Z,56.59
2022-08-09T10:22:29.378Z,58.82
2022-08-09T10:23:20.274Z,55.05
2022-08-09T10:24:25.571Z,57.34
2022-08-09T10:25:21.570Z,58.53
2022-08-09T10:26:19.400Z,55.88
2022-08-09T10:27:18.182Z,56.34
2022-08-09T10:28:18.995Z,58.02
2022-08-09T10:29:37.174Z,56.16
2022-08-09T10:32:38.597Z,57.42
2022-08-09T10:34:05.149Z,58.01
2022-08-09T10:34:33.143Z,58.14
2022-08-09T10:35:18.682Z,58.27
2022-08-09T10:36:17.686Z,57.64
2022-08-09T10:37:17.645Z,55.89
2022-08-09T10:38:55.326Z,54.94
2022-08-09T10:39:19.461Z,57.40
2022-08-09T10:40:35.014Z,57.14
2022-08-09T10:41:18.655Z,56.74
2022-08-09T10:42:18.493Z,57.04
2022-08-09T10:43:17.600Z,56.21
2022-08-09T10:44:17.580Z,58.93
2022-08-09T10:45:17.594Z,57.82
2022-08-09T10:46:22.158Z,61.02
2022-08-09T10:48:12.885Z,57.09
2022-08-09T10:48:29.525Z,59.28
2022-08-09T10:49:19.783Z,59.88
2022-08-09T10:50:17.542Z,54.63
2022-08-09T10:51:18.544Z,55.66
2022-08-09T10:52:17.779Z,58.75
2022-08-09T10:53:17.552Z,56.99
2022-08-09T10:54:17.554Z,57.59
2022-08-09T10:55:17.530Z,58.25
2022-08-09T10:56:22.542Z,59.03
2022-08-09T10:57:18.556Z,59.72
2022-08-09T10:58:17.486Z,58.57
2022-08-09T10:59:18.501Z,57.83
2022-08-09T11:00:17.467Z,58.90
2022-08-09T11:03:15.056Z,58.70
2022-08-09T11:03:16.133Z,56.96
2022-08-09T11:03:49.784Z,56.60
2022-08-09T11:04:29.914Z,54.70
2022-08-09T11:05:25.297Z,56.85
2022-08-09T11:06:18.428Z,57.54
2022-08-09T11:07:17.415Z,55.89
2022-08-09T11:08:17.408Z,57.98
2022-08-09T11:09:17.513Z,59.66
2022-08-09T11:10:17.401Z,55.91
2022-08-09T11:11:17.421Z,57.70
2022-08-09T11:12:17.769Z,59.27
2022-08-09T11:13:49.854Z,60.09
2022-08-09T11:14:18.360Z,60.63
2022-08-09T11:15:18.991Z,60.92
2022-08-09T11:16:35.080Z,58.26
2022-08-09T11:17:19.434Z,56.08
2022-08-09T11:18:17.343Z,56.20
2022-08-09T11:19:17.336Z,58.46
2022-08-09T11:20:22.535Z,56.87
2022-08-09T11:21:18.345Z,56.47
2022-08-09T11:22:21.650Z,57.20
2022-08-09T11:23:23.985Z,56.15
2022-08-09T11:24:18.290Z,60.38
2022-08-09T11:25:17.291Z,59.02
2022-08-09T11:26:17.271Z,57.42
2022-08-09T11:27:17.293Z,61.55
2022-08-09T11:28:30.588Z,59.67
2022-08-09T11:29:18.283Z,60.86
2022-08-09T11:30:33.724Z,59.05
2022-08-09T11:31:18.230Z,61.92
2022-08-09T11:32:18.227Z,59.17
2022-08-09T11:33:17.222Z,60.24
2022-08-09T11:34:17.243Z,59.30
2022-08-09T11:35:17.218Z,60.49
2022-08-09T11:36:35.395Z,59.32
2022-08-09T11:37:18.637Z,59.12
2022-08-09T11:38:17.185Z,60.00
2022-08-09T11:39:17.240Z,60.82
2022-08-09T11:40:17.992Z,57.82
2022-08-09T11:41:17.166Z,59.43
2022-08-09T11:42:17.152Z,58.14
2022-08-09T11:43:17.163Z,58.45
2022-08-09T11:44:17.168Z,57.93
2022-08-09T11:45:17.188Z,57.80
2022-08-09T11:46:18.442Z,58.36
2022-08-09T11:47:18.102Z,55.68
2022-08-09T11:48:25.293Z,59.04
2022-08-09T11:49:28.237Z,60.82
2022-08-09T11:50:56.318Z,61.10
2022-08-09T11:52:56.629Z,59.06
2022-08-09T11:53:02.380Z,58.90
2022-08-09T11:53:58.799Z,60.33
2022-08-09T11:54:27.631Z,57.43
2022-08-09T11:55:18.127Z,57.52
2022-08-09T11:56:19.482Z,55.44
2022-08-09T11:57:17.036Z,58.27
2022-08-09T11:58:18.030Z,57.57
2022-08-09T11:59:17.028Z,56.33
2022-08-09T12:00:19.538Z,55.48
2022-08-09T12:02:15.948Z,54.76
2022-08-09T12:02:37.742Z,59.24
2022-08-09T12:03:55.326Z,59.21
2022-08-09T12:04:20.883Z,58.36
2022-08-09T12:05:18.029Z,58.39
2022-08-09T12:06:18.048Z,59.59
2022-08-09T12:07:17.990Z,56.73
2022-08-09T12:08:21.687Z,56.09
2022-08-09T12:09:20.865Z,56.86
2022-08-09T12:10:38.597Z,59.37
2022-08-09T12:11:17.970Z,57.54
2022-08-09T12:12:31.800Z,55.85
2022-08-09T12:14:08.168Z,58.17
2022-08-09T12:14:37.261Z,58.96
2022-08-09T12:15:17.907Z,58.17
2022-08-09T12:16:37.733Z,57.94
2022-08-09T12:17:27.476Z,57.10
2022-08-09T12:18:17.883Z,57.34
2022-08-09T12:19:17.903Z,59.43
2022-08-09T12:20:21.505Z,57.58
2022-08-09T12:21:28.440Z,55.86
2022-08-09T12:22:17.860Z,55.04
2022-08-09T12:23:17.429Z,60.32
2022-08-09T12:24:17.865Z,57.71
2022-08-09T12:25:16.897Z,59.95
2022-08-09T12:26:25.430Z,60.61
2022-08-09T12:29:10.555Z,60.93
2022-08-09T12:29:15.302Z,58.28
2022-08-09T12:29:33.355Z,59.35
2022-08-09T12:30:36.405Z,61.99
2022-08-09T12:31:58.070Z,58.66
2022-08-09T12:32:17.785Z,60.37
2022-08-09T12:33:16.792Z,54.36
2022-08-09T12:34:16.773Z,56.71
2022-08-09T12:35:21.649Z,58.83
2022-08-09T12:36:31.512Z,59.78
2022-08-09T12:37:24.228Z,58.10
2022-08-09T12:38:17.749Z,62.00
2022-08-09T12:39:17.748Z,60.85
2022-08-09T12:40:16.722Z,59.77
2022-08-09T12:41:16.707Z,58.51
2022-08-09T12:42:16.861Z,61.33
2022-08-09T12:43:16.696Z,60.39
2022-08-09T12:44:16.686Z,61.38
2022-08-09T12:45:33.926Z,58.57
2022-08-09T12:46:17.679Z,59.19
2022-08-09T12:47:16.664Z,58.94
2022-08-09T12:48:27.905Z,58.79
2022-08-09T12:49:17.656Z,58.24
2022-08-09T12:50:16.651Z,59.62
2022-08-09T12:51:30.668Z,60.43
2022-08-09T12:52:17.635Z,57.76
2022-08-09T12:53:19.437Z,58.53
2022-08-09T12:54:16.637Z,56.96
2022-08-09T12:56:14.459Z,56.52
2022-08-09T12:56:39.548Z,61.00
2022-08-09T12:57:17.592Z,60.82
2022-08-09T12:58:27.926Z,56.37
2022-08-09T12:59:17.599Z,58.09
2022-08-09T13:00:16.573Z,58.19
2022-08-09T13:01:16.589Z,56.92